Observation data for Morton on 01/17/2019      Previous  Date  Next       Current Mesonet Observations  Soil Data  Daily Summary Page  Observations in Plain Language
KMNS 170600Z 27012KT 09/M01 A3013 RMK A01 T00881014  RH  049%=      5-min Rain = 0
KMNS 170605Z 27012KT 09/M02 A3013 RMK A01 T00881015  RH  049%=      5-min Rain = 0
KMNS 170610Z 28012KT 09/M02 A3013 RMK A01 T00871016  RH  049%=      5-min Rain = 0
KMNS 170615Z 28011KT 08/M02 A3013 RMK A01 T00841016  RH  050%=      5-min Rain = 0
KMNS 170620Z 29010KT 08/M02 A3013 RMK A01 T00821016  RH  050%=      5-min Rain = 0
KMNS 170625Z 30009KT 08/M02 A3013 RMK A01 T00771017  RH  052%=      5-min Rain = 0
KMNS 170630Z 29009KT 08/M02 A3013 RMK A01 T00761015  RH  053%=      5-min Rain = 0
KMNS 170635Z 29009KT 08/M02 A3013 RMK A01 T00761015  RH  053%=      5-min Rain = 0
KMNS 170640Z 29010KT 08/M02 A3013 RMK A01 T00761015  RH  053%=      5-min Rain = 0
KMNS 170645Z 29011KT 08/M02 A3013 RMK A01 T00761016  RH  052%=      5-min Rain = 0
KMNS 170650Z 28012KT 08/M02 A3013 RMK A01 T00761017  RH  052%=      5-min Rain = 0
KMNS 170655Z 28012KT 08/M02 A3013 RMK A01 T00761018  RH  052%=      5-min Rain = 0
KMNS 170700Z 29012KT 08/M02 A3013 RMK A01 T00761018  RH  052%=      5-min Rain = 0
KMNS 170705Z 29013KT 08/M02 A3012 RMK A01 T00761017  RH  052%=      5-min Rain = 0
KMNS 170710Z 29014KT 08/M02 A3012 RMK A01 T00791017  RH  051%=      5-min Rain = 0
KMNS 170715Z 30015KT 08/M02 A3012 RMK A01 T00841018  RH  049%=      5-min Rain = 0
KMNS 170720Z 30015G22KT 09/M02 A3012 RMK A01 T00881019  RH  048%=      5-min Rain = 0
KMNS 170725Z 30016G21KT 09/M02 A3012 RMK A01 T00901020  RH  047%=      5-min Rain = 0
KMNS 170730Z 30016G22KT 09/M02 A3012 RMK A01 T00911020  RH  046%=      5-min Rain = 0
KMNS 170735Z 29015G21KT 09/M02 A3012 RMK A01 T00901019  RH  046%=      5-min Rain = 0
KMNS 170740Z 27013KT 09/M02 A3012 RMK A01 T00871021  RH  047%=      5-min Rain = 0
KMNS 170745Z 26013KT 08/M02 A3012 RMK A01 T00821020  RH  049%=      5-min Rain = 0
KMNS 170750Z 26013KT 08/M02 A3013 RMK A01 T00791019  RH  050%=      5-min Rain = 0
KMNS 170755Z 26011G16KT 08/M02 A3013 RMK A01 T00791019  RH  050%=      5-min Rain = 0
KMNS 170800Z 27010KT 08/M02 A3014 RMK A01 T00751020  RH  052%=      5-min Rain = 0
KMNS 170805Z 27010KT 07/M02 A3014 RMK A01 T00741020  RH  052%=      5-min Rain = 0
KMNS 170810Z 26011KT 08/M02 A3014 RMK A01 T00761020  RH  051%=      5-min Rain = 0
KMNS 170815Z 27011KT 08/M02 A3014 RMK A01 T00771020  RH  050%=      5-min Rain = 0
KMNS 170820Z 27012KT 08/M02 A3014 RMK A01 T00771020  RH  051%=      5-min Rain = 0
KMNS 170825Z 26013KT 08/M02 A3014 RMK A01 T00781020  RH  050%=      5-min Rain = 0
KMNS 170830Z 26013KT 08/M02 A3014 RMK A01 T00791021  RH  050%=      5-min Rain = 0
KMNS 170835Z 26012KT 08/M02 A3014 RMK A01 T00751021  RH  051%=      5-min Rain = 0
KMNS 170840Z 26012KT 07/M02 A3014 RMK A01 T00721021  RH  052%=      5-min Rain = 0
KMNS 170845Z 25012KT 07/M02 A3014 RMK A01 T00681021  RH  053%=      5-min Rain = 0
KMNS 170850Z 25014KT 07/M02 A3014 RMK A01 T00691019  RH  054%=      5-min Rain = 0
KMNS 170855Z 25014KT 07/M02 A3014 RMK A01 T00691019  RH  054%=      5-min Rain = 0
KMNS 170900Z 25012KT 07/M02 A3015 RMK A01 T00671020  RH  054%=      5-min Rain = 0
KMNS 170905Z 25012KT 07/M02 A3015 RMK A01 T00671019  RH  055%=      5-min Rain = 0
KMNS 170910Z 26013KT 07/M02 A3015 RMK A01 T00711018  RH  054%=      5-min Rain = 0
KMNS 170915Z 26013KT 07/M02 A3015 RMK A01 T00741018  RH  052%=      5-min Rain = 0
KMNS 170920Z 26012KT 08/M02 A3015 RMK A01 T00751018  RH  052%=      5-min Rain = 0
KMNS 170925Z 25012KT 07/M02 A3015 RMK A01 T00731019  RH  052%=      5-min Rain = 0
KMNS 170930Z 25011KT 07/M02 A3015 RMK A01 T00681019  RH  054%=      5-min Rain = 0
KMNS 170935Z 25011KT 06/M02 A3016 RMK A01 T00631019  RH  056%=      5-min Rain = 0
KMNS 170940Z 25011KT 06/M02 A3016 RMK A01 T00631018  RH  056%=      5-min Rain = 0
KMNS 170945Z 25012KT 06/M02 A3015 RMK A01 T00641019  RH  056%=      5-min Rain = 0
KMNS 170950Z 25014KT 07/M02 A3015 RMK A01 T00651019  RH  055%=      5-min Rain = 0
KMNS 170955Z 26014G20KT 07/M02 A3015 RMK A01 T00671019  RH  054%=      5-min Rain = 0
KMNS 171000Z 26016G22KT 07/M02 A3014 RMK A01 T00701019  RH  054%=      5-min Rain = 0
KMNS 171005Z 26018G23KT 08/M02 A3014 RMK A01 T00751019  RH  052%=      5-min Rain = 0
KMNS 171010Z 27017G23KT 08/M02 A3014 RMK A01 T00761019  RH  051%=      5-min Rain = 0
KMNS 171015Z 27017KT 08/M02 A3015 RMK A01 T00781019  RH  051%=      5-min Rain = 0
KMNS 171020Z 28017KT 08/M02 A3014 RMK A01 T00781019  RH  051%=      5-min Rain = 0
KMNS 171025Z 28017KT 08/M02 A3014 RMK A01 T00781019  RH  051%=      5-min Rain = 0
KMNS 171030Z 28016KT 08/M02 A3014 RMK A01 T00761019  RH  051%=      5-min Rain = 0
KMNS 171035Z 28016KT 07/M02 A3014 RMK A01 T00741019  RH  052%=      5-min Rain = 0
KMNS 171040Z 29015KT 07/M02 A3014 RMK A01 T00741017  RH  053%=      5-min Rain = 0
KMNS 171045Z 29015G20KT 07/M02 A3014 RMK A01 T00731018  RH  053%=      5-min Rain = 0
KMNS 171050Z 29017KT 08/M02 A3013 RMK A01 T00761017  RH  052%=      5-min Rain = 0
KMNS 171055Z 29017G22KT 08/M02 A3013 RMK A01 T00781018  RH  051%=      5-min Rain = 0
KMNS 171100Z 29016G21KT 08/M02 A3013 RMK A01 T00771018  RH  051%=      5-min Rain = 0
KMNS 171105Z 29015G20KT 08/M02 A3013 RMK A01 T00761017  RH  052%=      5-min Rain = 0
KMNS 171110Z 27015KT 08/M02 A3013 RMK A01 T00751018  RH  052%=      5-min Rain = 0
KMNS 171115Z 27013KT 07/M02 A3013 RMK A01 T00721018  RH  053%=      5-min Rain = 0
KMNS 171120Z 28012G17KT 07/M02 A3014 RMK A01 T00691018  RH  054%=      5-min Rain = 0
KMNS 171125Z 28012KT 07/M02 A3014 RMK A01 T00671019  RH  055%=      5-min Rain = 0
KMNS 171130Z 28011G16KT 07/M02 A3014 RMK A01 T00661018  RH  055%=      5-min Rain = 0
KMNS 171135Z 28012G17KT 07/M02 A3014 RMK A01 T00651018  RH  056%=      5-min Rain = 0
KMNS 171140Z 28014KT 07/M02 A3014 RMK A01 T00661018  RH  056%=      5-min Rain = 0
KMNS 171145Z 28014KT 07/M02 A3014 RMK A01 T00661018  RH  056%=      5-min Rain = 0
KMNS 171150Z 28014KT 07/M02 A3013 RMK A01 T00661018  RH  055%=      5-min Rain = 0
KMNS 171155Z 28012KT 06/M02 A3014 RMK A01 T00631019  RH  056%=      5-min Rain = 0
KMNS 171200Z 28011KT 06/M02 A3014 RMK A01 T00611019  RH  057%=      5-min Rain = 0
KMNS 171205Z 28010KT 06/M02 A3014 RMK A01 T00581019  RH  058%=      5-min Rain = 0
KMNS 171210Z 28009KT 06/M02 A3015 RMK A01 T00551020  RH  059%=      5-min Rain = 0
KMNS 171215Z 28009KT 05/M02 A3015 RMK A01 T00531020  RH  060%=      5-min Rain = 0
KMNS 171220Z 28009KT 05/M02 A3015 RMK A01 T00521020  RH  060%=      5-min Rain = 0
KMNS 171225Z 28009KT 05/M02 A3015 RMK A01 T00491020  RH  061%=      5-min Rain = 0
KMNS 171230Z 28009KT 05/M02 A3016 RMK A01 T00471020  RH  062%=      5-min Rain = 0
KMNS 171235Z 29008KT 05/M02 A3016 RMK A01 T00451020  RH  063%=      5-min Rain = 0
KMNS 171240Z 30009KT 05/M02 A3016 RMK A01 T00461018  RH  064%=      5-min Rain = 0
KMNS 171245Z 29009KT 05/M02 A3016 RMK A01 T00471019  RH  063%=      5-min Rain = 0
KMNS 171250Z 29009KT 05/M02 A3016 RMK A01 T00461019  RH  063%=      5-min Rain = 0
KMNS 171255Z 28008KT 04/M02 A3017 RMK A01 T00441020  RH  064%=      5-min Rain = 0
KMNS 171300Z 27008KT 04/M02 A3017 RMK A01 T00401021  RH  065%=      5-min Rain = 0
KMNS 171305Z 27008KT 04/M02 A3018 RMK A01 T00401020  RH  065%=      5-min Rain = 0
KMNS 171310Z 27008KT 04/M02 A3018 RMK A01 T00401021  RH  065%=      5-min Rain = 0
KMNS 171315Z 27008KT 04/M02 A3018 RMK A01 T00381021  RH  066%=      5-min Rain = 0
KMNS 171320Z 28007KT 04/M02 A3018 RMK A01 T00391020  RH  066%=      5-min Rain = 0
KMNS 171325Z 27007KT 04/M02 A3018 RMK A01 T00371021  RH  066%=      5-min Rain = 0
KMNS 171330Z 28007KT 04/M02 A3018 RMK A01 T00351022  RH  067%=      5-min Rain = 0
KMNS 171335Z 29008KT 03/M02 A3018 RMK A01 T00321022  RH  068%=      5-min Rain = 0
KMNS 171340Z 29008KT 03/M02 A3018 RMK A01 T00311022  RH  069%=      5-min Rain = 0
KMNS 171345Z 29008KT 03/M02 A3018 RMK A01 T00301022  RH  069%=      5-min Rain = 0
KMNS 171350Z 28008KT 03/M02 A3018 RMK A01 T00311022  RH  069%=      5-min Rain = 0
KMNS 171355Z 28005KT 03/M02 A3018 RMK A01 T00291024  RH  069%=      5-min Rain = 0
KMNS 171400Z 27006KT 03/M03 A3019 RMK A01 T00261025  RH  069%=      5-min Rain = 0
KMNS 171405Z 27007KT 03/M02 A3018 RMK A01 T00261023  RH  070%=      5-min Rain = 0
KMNS 171410Z 28008KT 03/M02 A3018 RMK A01 T00281023  RH  070%=      5-min Rain = 0
KMNS 171415Z 29007KT 03/M02 A3018 RMK A01 T00301021  RH  069%=      5-min Rain = 0
KMNS 171420Z 29006KT 03/M02 A3019 RMK A01 T00321021  RH  069%=      5-min Rain = 0
KMNS 171425Z 28006KT 03/M02 A3019 RMK A01 T00321021  RH  068%=      5-min Rain = 0
KMNS 171430Z 27006KT 03/M02 A302 RMK A01 T00341020  RH  068%=      5-min Rain = 0
KMNS 171435Z 28006KT 04/M02 A302 RMK A01 T00371019  RH  067%=      5-min Rain = 0
KMNS 171440Z 27006KT 04/M02 A302 RMK A01 T00411018  RH  066%=      5-min Rain = 0
KMNS 171445Z 27006KT 04/M02 A302 RMK A01 T00441016  RH  065%=      5-min Rain = 0
KMNS 171450Z 28006KT 05/M02 A302 RMK A01 T00481015  RH  064%=      5-min Rain = 0
KMNS 171455Z 28007KT 05/M01 A302 RMK A01 T00521014  RH  063%=      5-min Rain = 0
KMNS 171500Z 27007KT 06/M01 A302 RMK A01 T00561012  RH  062%=      5-min Rain = 0
KMNS 171505Z 28007KT 06/M01 A302 RMK A01 T00591011  RH  061%=      5-min Rain = 0
KMNS 171510Z 29007KT 06/M01 A302 RMK A01 T00621011  RH  060%=      5-min Rain = 0
KMNS 171515Z 28006KT 07/M01 A302 RMK A01 T00651009  RH  060%=      5-min Rain = 0
KMNS 171520Z 28008KT 07/M01 A302 RMK A01 T00701007  RH  058%=      5-min Rain = 0
KMNS 171525Z 28008KT 08/M01 A302 RMK A01 T00761006  RH  057%=      5-min Rain = 0
KMNS 171530Z 29008G13KT 08/M01 A302 RMK A01 T00801006  RH  055%=      5-min Rain = 0
KMNS 171535Z 29009KT 08/M01 A302 RMK A01 T00841005  RH  054%=      5-min Rain = 0
KMNS 171540Z 28009KT 09/M01 A302 RMK A01 T00891006  RH  052%=      5-min Rain = 0
KMNS 171545Z 29008KT 09/M01 A3021 RMK A01 T00921006  RH  051%=      5-min Rain = 0
KMNS 171550Z 30010KT 10/M01 A3021 RMK A01 T00951006  RH  050%=      5-min Rain = 0
KMNS 171555Z 30009KT 10/M01 A3021 RMK A01 T00991006  RH  049%=      5-min Rain = 0
KMNS 171600Z 30011KT 10/M01 A3021 RMK A01 T01011008  RH  047%=      5-min Rain = 0
KMNS 171605Z 29009KT 11/M01 A3021 RMK A01 T01051006  RH  046%=      5-min Rain = 0
KMNS 171610Z 30009KT 11/M01 A3021 RMK A01 T01081007  RH  045%=      5-min Rain = 0
KMNS 171615Z 30009KT 11/M01 A3021 RMK A01 T01131007  RH  044%=      5-min Rain = 0
KMNS 171620Z 30010KT 12/M01 A3021 RMK A01 T01151007  RH  043%=      5-min Rain = 0
KMNS 171625Z 30010KT 12/M01 A3021 RMK A01 T01161007  RH  043%=      5-min Rain = 0
KMNS 171630Z 30009KT 12/M01 A3021 RMK A01 T01211006  RH  042%=      5-min Rain = 0
KMNS 171635Z 29008KT 13/M01 A3021 RMK A01 T01251006  RH  041%=      5-min Rain = 0
KMNS 171640Z 29008KT 13/M01 A3022 RMK A01 T01281007  RH  040%=      5-min Rain = 0
KMNS 171645Z 28008KT 13/M01 A3022 RMK A01 T01331008  RH  038%=      5-min Rain = 0
KMNS 171650Z 30007KT 14/M01 A3022 RMK A01 T01361011  RH  037%=      5-min Rain = 0
KMNS 171655Z 28008KT 14/M02 A3022 RMK A01 T01391015  RH  035%=      5-min Rain = 0
KMNS 171700Z 29008KT 14/M02 A3022 RMK A01 T01421016  RH  034%=      5-min Rain = 0
KMNS 171705Z 30008KT 14/M02 A3022 RMK A01 T01411020  RH  033%=      5-min Rain = 0
KMNS 171710Z 29006KT 15/M02 A3022 RMK A01 T01461023  RH  031%=      5-min Rain = 0
KMNS 171715Z 30006KT 15/M03 A3022 RMK A01 T01471028  RH  030%=      5-min Rain = 0
KMNS 171720Z 29006KT 15/M03 A3022 RMK A01 T01501026  RH  030%=      5-min Rain = 0
KMNS 171725Z 29007KT 15/M03 A3022 RMK A01 T01531027  RH  029%=      5-min Rain = 0
KMNS 171730Z 28007G12KT 15/M03 A3022 RMK A01 T01531028  RH  029%=      5-min Rain = 0
KMNS 171735Z 27005KT 15/M03 A3022 RMK A01 T01531030  RH  028%=      5-min Rain = 0
KMNS 171740Z 26006KT 16/M03 A3022 RMK A01 T01551030  RH  028%=      5-min Rain = 0
KMNS 171745Z 25005KT 16/M03 A3022 RMK A01 T01571033  RH  027%=      5-min Rain = 0
KMNS 171750Z 26003KT 16/M04 A3022 RMK A01 T01591035  RH  026%=      5-min Rain = 0
KMNS 171755Z 26003KT 16/M03 A3021 RMK A01 T01581034  RH  027%=      5-min Rain = 0
KMNS 171800Z 23005KT 16/M03 A3021 RMK A01 T01621033  RH  026%=      5-min Rain = 0
KMNS 171805Z 25002KT 16/M04 A3021 RMK A01 T01611036  RH  026%=      5-min Rain = 0
KMNS 171810Z 23004KT 16/M04 A3021 RMK A01 T01631037  RH  025%=      5-min Rain = 0
KMNS 171815Z 20004KT 17/M04 A3021 RMK A01 T01661040  RH  024%=      5-min Rain = 0
KMNS 171820Z 18001KT 17/M04 A302 RMK A01 T01731040  RH  023%=      5-min Rain = 0
KMNS 171825Z 25004KT 17/M04 A302 RMK A01 T01711041  RH  023%=      5-min Rain = 0
KMNS 171830Z 25005KT 17/M05 A302 RMK A01 T01681046  RH  023%=      5-min Rain = 0
KMNS 171835Z 27003KT 17/M04 A3019 RMK A01 T01681043  RH  023%=      5-min Rain = 0
KMNS 171840Z 21003KT 17/M04 A3019 RMK A01 T01701044  RH  023%=      5-min Rain = 0
KMNS 171845Z 25003KT 17/M05 A3018 RMK A01 T01671045  RH  023%=      5-min Rain = 0
KMNS 171850Z 23005KT 18/M05 A3018 RMK A01 T01761046  RH  022%=      5-min Rain = 0
KMNS 171855Z 24004KT 17/M05 A3017 RMK A01 T01741048  RH  022%=      5-min Rain = 0
KMNS 171900Z 27004KT 17/M05 A3017 RMK A01 T01741050  RH  021%=      5-min Rain = 0
KMNS 171905Z 22005KT 17/M05 A3016 RMK A01 T01741051  RH  021%=      5-min Rain = 0
KMNS 171910Z 23004KT 18/M05 A3016 RMK A01 T01751051  RH  021%=      5-min Rain = 0
KMNS 171915Z 22004KT 18/M05 A3016 RMK A01 T01771052  RH  021%=      5-min Rain = 0
KMNS 171920Z 24005KT 18/M05 A3015 RMK A01 T01811051  RH  020%=      5-min Rain = 0
KMNS 171925Z 21004G9KT 18/M05 A3015 RMK A01 T01801051  RH  020%=      5-min Rain = 0
KMNS 171930Z 22005G10KT 18/M05 A3014 RMK A01 T01811051  RH  020%=      5-min Rain = 0
KMNS 171935Z 21005KT 18/M05 A3014 RMK A01 T01831052  RH  020%=      5-min Rain = 0
KMNS 171940Z 19006KT 19/M05 A3014 RMK A01 T01851048  RH  020%=      5-min Rain = 0
KMNS 171945Z 20005G10KT 18/M05 A3014 RMK A01 T01811050  RH  020%=      5-min Rain = 0
KMNS 171950Z 21004KT 19/M05 A3013 RMK A01 T01851048  RH  020%=      5-min Rain = 0
KMNS 171955Z 22006G11KT 19/M05 A3013 RMK A01 T01881052  RH  019%=      5-min Rain = 0
KMNS 172000Z 22007KT 19/M06 A3012 RMK A01 T01881058  RH  018%=      5-min Rain = 0
KMNS 172005Z 22007KT 19/M06 A3012 RMK A01 T01901057  RH  018%=      5-min Rain = 0
KMNS 172010Z 23008KT 19/M06 A3012 RMK A01 T01891055  RH  019%=      5-min Rain = 0
KMNS 172015Z 25006KT 19/M05 A3011 RMK A01 T01921053  RH  019%=      5-min Rain = 0
KMNS 172020Z 24009KT 19/M05 A3011 RMK A01 T01931054  RH  018%=      5-min Rain = 0
KMNS 172025Z 24007G12KT 19/M06 A3011 RMK A01 T01931055  RH  018%=      5-min Rain = 0
KMNS 172030Z 26005KT 19/M06 A3011 RMK A01 T01931057  RH  018%=      5-min Rain = 0
KMNS 172035Z 25004KT 20/M06 A301 RMK A01 T01951056  RH  018%=      5-min Rain = 0
KMNS 172040Z 23007KT 20/M06 A301 RMK A01 T01951055  RH  018%=      5-min Rain = 0
KMNS 172045Z 27006KT 19/M06 A301 RMK A01 T01941057  RH  018%=      5-min Rain = 0
KMNS 172050Z 24006KT 20/M06 A301 RMK A01 T01971058  RH  017%=      5-min Rain = 0
KMNS 172055Z 24007G15KT 20/M06 A3009 RMK A01 T02001055  RH  017%=      5-min Rain = 0
KMNS 172100Z 26007KT 20/M06 A3009 RMK A01 T01981057  RH  017%=      5-min Rain = 0
KMNS 172105Z 27007KT 19/M06 A3009 RMK A01 T01941057  RH  018%=      5-min Rain = 0
KMNS 172110Z 24005KT 19/M06 A3009 RMK A01 T01911055  RH  018%=      5-min Rain = 0
KMNS 172115Z 22006KT 19/M05 A3009 RMK A01 T01941054  RH  018%=      5-min Rain = 0
KMNS 172120Z 21006KT 20/M05 A3009 RMK A01 T01961052  RH  018%=      5-min Rain = 0
KMNS 172125Z 24006KT 20/M05 A3009 RMK A01 T01951052  RH  018%=      5-min Rain = 0
KMNS 172130Z 23006KT 20/M05 A3009 RMK A01 T01951053  RH  018%=      5-min Rain = 0
KMNS 172135Z 23005KT 20/M05 A3009 RMK A01 T01971054  RH  018%=      5-min Rain = 0
KMNS 172140Z 24006KT 20/M05 A3009 RMK A01 T01971052  RH  018%=      5-min Rain = 0
KMNS 172145Z 22004KT 20/M05 A3009 RMK A01 T02001050  RH  018%=      5-min Rain = 0
KMNS 172150Z 24008KT 20/M05 A3009 RMK A01 T01991048  RH  018%=      5-min Rain = 0
KMNS 172155Z 24007KT 20/M05 A3009 RMK A01 T02001048  RH  018%=      5-min Rain = 0
KMNS 172200Z 21006KT 20/M04 A3009 RMK A01 T02021044  RH  019%=      5-min Rain = 0
KMNS 172205Z 22007KT 20/M05 A3008 RMK A01 T02011047  RH  018%=      5-min Rain = 0
KMNS 172210Z 22006KT 20/M05 A3008 RMK A01 T02021047  RH  018%=      5-min Rain = 0
KMNS 172215Z 23006KT 20/M05 A3008 RMK A01 T01991047  RH  019%=      5-min Rain = 0
KMNS 172220Z 21005KT 20/M05 A3008 RMK A01 T02001046  RH  019%=      5-min Rain = 0
KMNS 172225Z 21005KT 20/M05 A3008 RMK A01 T02001048  RH  018%=      5-min Rain = 0
KMNS 172230Z 22005KT 20/M05 A3008 RMK A01 T02011048  RH  018%=      5-min Rain = 0
KMNS 172235Z 23006KT 20/M05 A3008 RMK A01 T02041052  RH  017%=      5-min Rain = 0
KMNS 172240Z 22007KT 20/M06 A3008 RMK A01 T02041056  RH  017%=      5-min Rain = 0
KMNS 172245Z 20006KT 20/M05 A3008 RMK A01 T02041051  RH  017%=      5-min Rain = 0
KMNS 172250Z 22005KT 21/M05 A3008 RMK A01 T02061053  RH  017%=      5-min Rain = 0
KMNS 172255Z 20006KT 20/M05 A3008 RMK A01 T02031049  RH  018%=      5-min Rain = 0
KMNS 172300Z 20007KT 20/M05 A3007 RMK A01 T02011049  RH  018%=      5-min Rain = 0
KMNS 172305Z 19006KT 20/M05 A3007 RMK A01 T01991050  RH  018%=      5-min Rain = 0
KMNS 172310Z 19008KT 20/M05 A3007 RMK A01 T01981050  RH  018%=      5-min Rain = 0
KMNS 172315Z 17008KT 20/M05 A3007 RMK A01 T01961052  RH  018%=      5-min Rain = 0
KMNS 172320Z 18007KT 20/M05 A3006 RMK A01 T01951054  RH  018%=      5-min Rain = 0
KMNS 172325Z 18006KT 19/M05 A3006 RMK A01 T01931053  RH  019%=      5-min Rain = 0
KMNS 172330Z 19006KT 19/M05 A3006 RMK A01 T01891052  RH  019%=      5-min Rain = 0
KMNS 172335Z 19006KT 19/M05 A3006 RMK A01 T01861052  RH  019%=      5-min Rain = 0
KMNS 172340Z 18007KT 18/M06 A3006 RMK A01 T01811055  RH  020%=      5-min Rain = 0
KMNS 172345Z 18006KT 18/M06 A3005 RMK A01 T01771055  RH  020%=      5-min Rain = 0
KMNS 172350Z 18006KT 17/M06 A3005 RMK A01 T01731055  RH  021%=      5-min Rain = 0
KMNS 172355Z 17005KT 17/M06 A3005 RMK A01 T01681055  RH  021%=      5-min Rain = 0
KMNS 180000Z 17005KT 16/M06 A3005 RMK A01 T01631057  RH  022%=      5-min Rain = 0
KMNS 180005Z 17005KT 16/M06 A3005 RMK A01 T01591057  RH  022%=      5-min Rain = 0
KMNS 180010Z 17005KT 15/M06 A3006 RMK A01 T01531057  RH  023%=      5-min Rain = 0
KMNS 180015Z 18005KT 15/M06 A3006 RMK A01 T01461059  RH  024%=      5-min Rain = 0
KMNS 180020Z 18005KT 14/M06 A3006 RMK A01 T01381059  RH  025%=      5-min Rain = 0
KMNS 180025Z 17005KT 13/M06 A3006 RMK A01 T01311056  RH  027%=      5-min Rain = 0
KMNS 180030Z 18005KT 13/M05 A3006 RMK A01 T01311054  RH  027%=      5-min Rain = 0
KMNS 180035Z 18007KT 13/M06 A3006 RMK A01 T01311055  RH  027%=      5-min Rain = 0
KMNS 180040Z 19008KT 13/M06 A3007 RMK A01 T01261060  RH  027%=      5-min Rain = 0
KMNS 180045Z 20008KT 12/M06 A3007 RMK A01 T01231060  RH  027%=      5-min Rain = 0
KMNS 180050Z 20009KT 12/M06 A3007 RMK A01 T01171056  RH  029%=      5-min Rain = 0
KMNS 180055Z 20010KT 12/M06 A3007 RMK A01 T01151060  RH  029%=      5-min Rain = 0
KMNS 180100Z 20009KT 11/M06 A3007 RMK A01 T01111062  RH  029%=      5-min Rain = 0
KMNS 180105Z 19010KT 10/M06 A3007 RMK A01 T01041061  RH  031%=      5-min Rain = 0
KMNS 180110Z 19010KT 10/M06 A3007 RMK A01 T01021060  RH  032%=      5-min Rain = 0
KMNS 180115Z 20010KT 10/M06 A3007 RMK A01 T00991060  RH  032%=      5-min Rain = 0
KMNS 180120Z 20009KT 10/M06 A3007 RMK A01 T01001058  RH  033%=      5-min Rain = 0
KMNS 180125Z 20009KT 10/M06 A3007 RMK A01 T01001055  RH  033%=      5-min Rain = 0
KMNS 180130Z 20009KT 10/M05 A3007 RMK A01 T01001053  RH  034%=      5-min Rain = 0
KMNS 180135Z 20010KT 10/M05 A3007 RMK A01 T01021051  RH  034%=      5-min Rain = 0
KMNS 180140Z 21010KT 11/M05 A3006 RMK A01 T01091052  RH  032%=      5-min Rain = 0
KMNS 180145Z 21010KT 12/M06 A3006 RMK A01 T01151056  RH  030%=      5-min Rain = 0
KMNS 180150Z 20009KT 11/M06 A3006 RMK A01 T01141057  RH  030%=      5-min Rain = 0
KMNS 180155Z 20009KT 10/M06 A3006 RMK A01 T00991055  RH  033%=      5-min Rain = 0
KMNS 180200Z 21008KT 10/M06 A3006 RMK A01 T00961055  RH  034%=      5-min Rain = 0
KMNS 180205Z 21008KT 10/M06 A3006 RMK A01 T01001057  RH  033%=      5-min Rain = 0
KMNS 180210Z 20008KT 10/M06 A3006 RMK A01 T00991058  RH  033%=      5-min Rain = 0
KMNS 180215Z 20008KT 09/M06 A3006 RMK A01 T00901057  RH  035%=      5-min Rain = 0
KMNS 180220Z 19009KT 08/M06 A3006 RMK A01 T00801055  RH  038%=      5-min Rain = 0
KMNS 180225Z 20009KT 08/M06 A3006 RMK A01 T00781055  RH  038%=      5-min Rain = 0
KMNS 180230Z 20011KT 08/M06 A3006 RMK A01 T00791055  RH  038%=      5-min Rain = 0
KMNS 180235Z 20011KT 08/M06 A3006 RMK A01 T00821056  RH  037%=      5-min Rain = 0
KMNS 180240Z 20011KT 08/M06 A3006 RMK A01 T00791057  RH  038%=      5-min Rain = 0
KMNS 180245Z 20011KT 08/M06 A3006 RMK A01 T00761056  RH  039%=      5-min Rain = 0
KMNS 180250Z 20010KT 08/M05 A3006 RMK A01 T00811053  RH  038%=      5-min Rain = 0
KMNS 180255Z 20010KT 09/M05 A3006 RMK A01 T00881050  RH  037%=      5-min Rain = 0
KMNS 180300Z 20010KT 09/M05 A3005 RMK A01 T00921048  RH  037%=      5-min Rain = 0
KMNS 180305Z 20011KT 09/M04 A3005 RMK A01 T00941044  RH  037%=      5-min Rain = 0
KMNS 180310Z 20010KT 09/M04 A3005 RMK A01 T00941043  RH  038%=      5-min Rain = 0
KMNS 180315Z 21011KT 09/M04 A3005 RMK A01 T00901043  RH  039%=      5-min Rain = 0
KMNS 180320Z 20010KT 09/M04 A3005 RMK A01 T00891041  RH  040%=      5-min Rain = 0
KMNS 180325Z 20009KT 09/M04 A3005 RMK A01 T00851039  RH  042%=      5-min Rain = 0
KMNS 180330Z 20008KT 08/M04 A3004 RMK A01 T00781037  RH  044%=      5-min Rain = 0
KMNS 180335Z 21008KT 08/M03 A3004 RMK A01 T00791034  RH  045%=      5-min Rain = 0
KMNS 180340Z 20008KT 08/M03 A3004 RMK A01 T00821032  RH  045%=      5-min Rain = 0
KMNS 180345Z 19008KT 07/M03 A3004 RMK A01 T00741034  RH  046%=      5-min Rain = 0
KMNS 180350Z 19009KT 07/M03 A3004 RMK A01 T00711032  RH  048%=      5-min Rain = 0
KMNS 180355Z 19010KT 08/M03 A3003 RMK A01 T00761028  RH  048%=      5-min Rain = 0
KMNS 180400Z 19011KT 08/M03 A3003 RMK A01 T00801025  RH  048%=      5-min Rain = 0
KMNS 180405Z 19011KT 08/M03 A3003 RMK A01 T00801026  RH  048%=      5-min Rain = 0
KMNS 180410Z 20011KT 08/M03 A3003 RMK A01 T00781025  RH  048%=      5-min Rain = 0
KMNS 180415Z 20011KT 08/M03 A3002 RMK A01 T00781025  RH  048%=      5-min Rain = 0
KMNS 180420Z 19011KT 08/M03 A3002 RMK A01 T00761025  RH  049%=      5-min Rain = 0
KMNS 180425Z 19011KT 08/M03 A3002 RMK A01 T00761025  RH  049%=      5-min Rain = 0
KMNS 180430Z 20011KT 07/M03 A3002 RMK A01 T00731026  RH  050%=      5-min Rain = 0
KMNS 180435Z 19010KT 07/M03 A3002 RMK A01 T00681026  RH  051%=      5-min Rain = 0
KMNS 180440Z 19009KT 06/M03 A3002 RMK A01 T00641027  RH  053%=      5-min Rain = 0
KMNS 180445Z 19009KT 06/M03 A3002 RMK A01 T00621026  RH  054%=      5-min Rain = 0
KMNS 180450Z 20009KT 06/M03 A3003 RMK A01 T00611025  RH  054%=      5-min Rain = 0
KMNS 180455Z 20010KT 07/M02 A3003 RMK A01 T00691022  RH  053%=      5-min Rain = 0
KMNS 180500Z 21009KT 07/M02 A3003 RMK A01 T00731021  RH  052%=      5-min Rain = 0
KMNS 180505Z 21010KT 08/M02 A3002 RMK A01 T00751020  RH  052%=      5-min Rain = 0
KMNS 180510Z 21011KT 08/M02 A3002 RMK A01 T00791019  RH  050%=      5-min Rain = 0
KMNS 180515Z 21013KT 08/M02 A3002 RMK A01 T00781019  RH  051%=      5-min Rain = 0
KMNS 180520Z 21013KT 08/M02 A3002 RMK A01 T00781018  RH  051%=      5-min Rain = 0
KMNS 180525Z 20013KT 08/M02 A3002 RMK A01 T00781018  RH  051%=      5-min Rain = 0
KMNS 180530Z 20012G17KT 08/M02 A3002 RMK A01 T00771017  RH  052%=      5-min Rain = 0
KMNS 180535Z 21012KT 08/M02 A3002 RMK A01 T00761017  RH  052%=      5-min Rain = 0
KMNS 180540Z 21011KT 08/M02 A3001 RMK A01 T00751016  RH  053%=      5-min Rain = 0
KMNS 180545Z 20012KT 08/M02 A3001 RMK A01 T00761015  RH  053%=      5-min Rain = 0
KMNS 180550Z 21011KT 08/M02 A3001 RMK A01 T00771015  RH  053%=      5-min Rain = 0
KMNS 180555Z 21011KT 08/M01 A3001 RMK A01 T00761014  RH  053%=      5-min Rain = 0

Page generated in 0.0387 seconds.